createdAt,value
2022-08-07T00:01:44.288Z,23.06
2022-08-07T00:03:14.748Z,23.13
2022-08-07T00:05:14.696Z,23.11
2022-08-07T00:07:14.836Z,23.10
2022-08-07T00:09:16.876Z,23.03
2022-08-07T00:11:19.805Z,23.12
2022-08-07T00:13:23.734Z,23.06
2022-08-07T00:15:14.770Z,23.10
2022-08-07T00:17:14.715Z,23.05
2022-08-07T00:19:21.305Z,23.05
2022-08-07T00:21:56.730Z,23.04
2022-08-07T00:23:14.799Z,23.10
2022-08-07T00:25:15.800Z,22.85
2022-08-07T00:27:14.834Z,22.87
2022-08-07T00:29:14.710Z,22.78
2022-08-07T00:31:16.505Z,22.77
2022-08-07T00:33:14.694Z,22.72
2022-08-07T00:35:16.580Z,22.81
2022-08-07T00:37:14.969Z,22.83
2022-08-07T00:39:16.539Z,22.95
2022-08-07T00:41:15.278Z,22.97
2022-08-07T00:43:59.315Z,23.03
2022-08-07T00:45:16.128Z,22.97
2022-08-07T00:47:15.935Z,22.96
2022-08-07T00:49:24.946Z,23.02
2022-08-07T00:51:14.771Z,22.96
2022-08-07T00:53:14.869Z,22.96
2022-08-07T00:55:17.442Z,23.03
2022-08-07T00:57:14.736Z,22.99
2022-08-07T00:59:14.785Z,22.96
2022-08-07T01:01:14.871Z,23.01
2022-08-07T01:03:14.774Z,22.95
2022-08-07T01:05:18.769Z,22.95
2022-08-07T01:07:14.893Z,22.96
2022-08-07T01:10:04.798Z,22.97
2022-08-07T01:12:23.739Z,22.95
2022-08-07T01:13:16.318Z,22.95
2022-08-07T01:15:16.923Z,22.95
2022-08-07T01:17:14.778Z,22.96
2022-08-07T01:19:18.727Z,22.94
2022-08-07T01:21:22.894Z,22.97
2022-08-07T01:23:14.899Z,22.68
2022-08-07T01:25:40.326Z,22.69
2022-08-07T01:27:19.638Z,22.68
2022-08-07T01:29:14.749Z,22.67
2022-08-07T01:31:15.279Z,22.63
2022-08-07T01:33:14.773Z,22.63
2022-08-07T01:35:14.898Z,22.68
2022-08-07T01:37:14.778Z,22.87
2022-08-07T01:39:14.939Z,22.88
2022-08-07T01:41:25.800Z,22.96
2022-08-07T01:43:14.811Z,22.95
2022-08-07T01:45:17.953Z,22.87
2022-08-07T01:48:17.891Z,22.92
2022-08-07T01:49:14.792Z,22.87
2022-08-07T01:51:49.430Z,22.95
2022-08-07T01:53:21.620Z,22.97
2022-08-07T01:55:22.518Z,22.84
2022-08-07T01:57:20.730Z,22.87
2022-08-07T01:59:15.865Z,22.92
2022-08-07T02:01:59.382Z,22.90
2022-08-07T02:03:21.723Z,22.87
2022-08-07T02:05:16.030Z,22.88
2022-08-07T02:07:14.954Z,22.87
2022-08-07T02:09:51.802Z,22.84
2022-08-07T02:11:36.978Z,22.95
2022-08-07T02:13:15.014Z,22.88
2022-08-07T02:15:14.971Z,22.87
2022-08-07T02:17:16.507Z,22.87
2022-08-07T02:20:07.835Z,22.85
2022-08-07T02:21:16.412Z,22.69
2022-08-07T02:23:14.897Z,22.66
2022-08-07T02:25:17.644Z,22.63
2022-08-07T02:27:14.999Z,22.61
2022-08-07T02:29:14.899Z,22.63
2022-08-07T02:31:28.039Z,22.67
2022-08-07T02:33:14.992Z,22.72
2022-08-07T02:35:14.847Z,22.80
2022-08-07T02:37:15.027Z,22.85
2022-08-07T02:39:17.391Z,22.82
2022-08-07T02:41:14.891Z,22.87
2022-08-07T02:43:14.835Z,22.85
2022-08-07T02:46:00.709Z,22.87
2022-08-07T02:47:44.821Z,22.85
2022-08-07T02:49:29.147Z,22.90
2022-08-07T02:51:41.786Z,22.82
2022-08-07T02:53:14.882Z,22.82
2022-08-07T02:55:27.776Z,22.81
2022-08-07T02:57:14.886Z,22.84
2022-08-07T02:59:15.048Z,22.82
2022-08-07T03:01:18.711Z,22.83
2022-08-07T03:03:22.617Z,22.83
2022-08-07T03:05:20.607Z,22.81
2022-08-07T03:07:14.897Z,22.79
2022-08-07T03:09:15.050Z,22.79
2022-08-07T03:11:14.921Z,22.78
2022-08-07T03:13:14.860Z,22.79
2022-08-07T03:15:15.054Z,22.78
2022-08-07T03:17:14.915Z,22.54
2022-08-07T03:19:15.073Z,22.56
2022-08-07T03:21:18.961Z,22.53
2022-08-07T03:23:19.404Z,22.56
2022-08-07T03:25:15.055Z,22.53
2022-08-07T03:27:14.881Z,22.53
2022-08-07T03:29:14.975Z,22.54
2022-08-07T03:31:14.883Z,22.70
2022-08-07T03:33:15.048Z,22.83
2022-08-07T03:35:17.693Z,22.79
2022-08-07T03:37:15.109Z,22.78
2022-08-07T03:39:15.160Z,22.71
2022-08-07T03:41:14.985Z,22.68
2022-08-07T03:43:14.991Z,22.74
2022-08-07T03:45:20.937Z,22.72
2022-08-07T03:47:14.921Z,22.73
2022-08-07T03:49:15.053Z,22.71
2022-08-07T03:51:15.084Z,22.73
2022-08-07T03:53:14.956Z,22.72
2022-08-07T03:55:15.084Z,22.74
2022-08-07T03:58:33.261Z,22.78
2022-08-07T03:59:15.311Z,22.78
2022-08-07T04:01:15.040Z,22.56
2022-08-07T04:03:14.927Z,22.56
2022-08-07T04:05:15.068Z,22.52
2022-08-07T04:07:16.818Z,22.53
2022-08-07T04:09:15.246Z,22.48
2022-08-07T04:12:20.689Z,22.51
2022-08-07T04:13:15.101Z,22.42
2022-08-07T04:15:15.045Z,22.37
2022-08-07T04:17:21.255Z,22.32
2022-08-07T04:19:15.660Z,22.39
2022-08-07T04:21:15.062Z,22.37
2022-08-07T04:23:19.364Z,22.31
2022-08-07T04:25:14.992Z,22.34
2022-08-07T04:27:36.029Z,22.30
2022-08-07T04:29:15.093Z,22.48
2022-08-07T04:31:20.060Z,22.68
2022-08-07T04:33:15.748Z,22.70
2022-08-07T04:35:14.975Z,22.78
2022-08-07T04:37:20.223Z,22.71
2022-08-07T04:39:15.038Z,22.70
2022-08-07T04:41:19.209Z,22.74
2022-08-07T04:43:14.988Z,22.68
2022-08-07T04:45:16.971Z,22.71
2022-08-07T04:47:23.510Z,22.67
2022-08-07T04:49:18.316Z,22.80
2022-08-07T04:51:15.057Z,22.72
2022-08-07T04:53:27.749Z,22.71
2022-08-07T04:58:09.596Z,22.74
2022-08-07T04:58:12.973Z,22.69
2022-08-07T05:00:09.839Z,22.76
2022-08-07T05:01:15.762Z,22.79
2022-08-07T05:03:17.192Z,22.73
2022-08-07T05:05:53.463Z,22.81
2022-08-07T05:07:20.545Z,22.82
2022-08-07T05:09:15.152Z,22.70
2022-08-07T05:11:19.346Z,22.78
2022-08-07T05:14:53.405Z,22.48
2022-08-07T05:15:15.061Z,22.44
2022-08-07T05:17:16.119Z,22.51
2022-08-07T05:19:15.042Z,22.42
2022-08-07T05:21:15.197Z,22.50
2022-08-07T05:23:16.353Z,22.55
2022-08-07T05:25:25.810Z,22.66
2022-08-07T05:28:16.121Z,22.79
2022-08-07T05:29:15.127Z,22.82
2022-08-07T05:31:16.629Z,22.81
2022-08-07T05:33:15.016Z,22.79
2022-08-07T05:35:15.097Z,22.82
2022-08-07T05:37:15.207Z,22.81
2022-08-07T05:40:07.075Z,22.79
2022-08-07T05:41:16.980Z,22.79
2022-08-07T05:43:15.207Z,22.76
2022-08-07T05:45:28.269Z,22.78
2022-08-07T05:47:18.696Z,22.80
2022-08-07T05:49:15.223Z,22.78
2022-08-07T05:51:15.225Z,22.78
2022-08-07T05:54:12.677Z,22.84
2022-08-07T05:55:15.114Z,22.88
2022-08-07T05:57:15.086Z,22.95
2022-08-07T05:59:15.226Z,22.85
2022-08-07T06:01:15.245Z,22.87
2022-08-07T06:03:15.168Z,22.87
2022-08-07T06:05:15.782Z,22.87
2022-08-07T06:07:22.966Z,22.85
2022-08-07T06:09:15.138Z,22.87
2022-08-07T06:11:15.087Z,22.48
2022-08-07T06:13:15.515Z,22.51
2022-08-07T06:15:15.206Z,22.56
2022-08-07T06:17:15.260Z,22.56
2022-08-07T06:19:17.594Z,22.51
2022-08-07T06:22:15.159Z,22.60
2022-08-07T06:23:46.571Z,22.82
2022-08-07T06:25:15.090Z,22.92
2022-08-07T06:27:22.993Z,22.97
2022-08-07T06:29:15.074Z,23.06
2022-08-07T06:31:15.118Z,23.12
2022-08-07T06:33:16.836Z,23.22
2022-08-07T06:35:17.676Z,23.33
2022-08-07T06:37:17.068Z,23.39
2022-08-07T06:40:13.176Z,23.53
2022-08-07T06:41:15.369Z,23.53
2022-08-07T06:43:21.247Z,23.66
2022-08-07T06:45:17.989Z,23.93
2022-08-07T06:47:15.613Z,23.74
2022-08-07T06:49:15.134Z,23.82
2022-08-07T06:51:15.389Z,23.89
2022-08-07T06:54:12.161Z,23.88
2022-08-07T06:55:33.423Z,23.96
2022-08-07T06:57:15.296Z,23.93
2022-08-07T07:00:12.929Z,24.00
2022-08-07T07:01:15.364Z,24.06
2022-08-07T07:03:17.257Z,24.11
2022-08-07T07:05:15.141Z,24.15
2022-08-07T07:07:19.382Z,23.81
2022-08-07T07:09:15.138Z,23.75
2022-08-07T07:12:07.555Z,23.81
2022-08-07T07:13:15.181Z,23.82
2022-08-07T07:15:23.946Z,23.85
2022-08-07T07:17:16.233Z,23.82
2022-08-07T07:19:55.525Z,23.96
2022-08-07T07:21:19.834Z,24.24
2022-08-07T07:24:10.029Z,24.33
2022-08-07T07:26:32.658Z,24.40
2022-08-07T07:27:15.173Z,24.45
2022-08-07T07:29:39.984Z,24.42
2022-08-07T07:31:17.325Z,24.49
2022-08-07T07:33:15.312Z,24.58
2022-08-07T07:35:15.310Z,24.51
2022-08-07T07:37:45.469Z,24.59
2022-08-07T07:39:15.410Z,24.62
2022-08-07T07:41:15.200Z,24.68
2022-08-07T07:43:18.808Z,24.75
2022-08-07T07:45:15.955Z,24.82
2022-08-07T07:47:23.618Z,24.80
2022-08-07T07:50:35.771Z,24.85
2022-08-07T07:51:15.495Z,24.95
2022-08-07T07:53:20.318Z,24.90
2022-08-07T07:55:15.325Z,24.92
2022-08-07T07:57:15.320Z,24.95
2022-08-07T07:59:15.245Z,24.97
2022-08-07T08:02:01.572Z,24.99
2022-08-07T08:03:16.707Z,25.09
2022-08-07T08:05:15.421Z,24.83
2022-08-07T08:07:15.191Z,24.90
2022-08-07T08:09:15.415Z,24.64
2022-08-07T08:11:17.830Z,24.95
2022-08-07T08:13:15.560Z,24.90
2022-08-07T08:15:15.275Z,25.04
2022-08-07T08:17:57.201Z,25.09
2022-08-07T08:20:15.762Z,25.14
2022-08-07T08:21:15.277Z,25.37
2022-08-07T08:23:15.259Z,25.37
2022-08-07T08:25:26.299Z,25.45
2022-08-07T08:27:16.624Z,25.28
2022-08-07T08:29:15.440Z,25.27
2022-08-07T08:31:16.320Z,25.57
2022-08-07T08:33:16.835Z,25.56
2022-08-07T08:35:15.392Z,25.65
2022-08-07T08:38:01.207Z,25.80
2022-08-07T08:39:15.519Z,25.82
2022-08-07T08:41:15.317Z,25.89
2022-08-07T08:43:15.949Z,25.90
2022-08-07T08:45:15.398Z,25.89
2022-08-07T08:47:17.231Z,25.90
2022-08-07T08:49:15.279Z,25.74
2022-08-07T08:51:49.268Z,25.75
2022-08-07T08:53:15.418Z,25.89
2022-08-07T08:55:21.158Z,26.17
2022-08-07T08:57:16.327Z,26.32
2022-08-07T08:59:16.307Z,26.31
2022-08-07T09:01:18.320Z,26.08
2022-08-07T09:03:15.306Z,26.07
2022-08-07T09:05:15.465Z,26.14
2022-08-07T09:07:15.264Z,25.95
2022-08-07T09:09:23.719Z,26.04
2022-08-07T09:11:24.710Z,26.04
2022-08-07T09:13:15.335Z,26.48
2022-08-07T09:16:22.880Z,27.05
2022-08-07T09:17:15.271Z,27.20
2022-08-07T09:19:52.015Z,27.30
2022-08-07T09:21:34.275Z,27.22
2022-08-07T09:24:33.137Z,25.99
2022-08-07T09:25:17.974Z,26.65
2022-08-07T09:27:15.346Z,27.10
2022-08-07T09:30:01.072Z,27.05
2022-08-07T09:31:15.613Z,27.26
2022-08-07T09:33:16.601Z,25.38
2022-08-07T09:36:04.168Z,25.29
2022-08-07T09:37:15.488Z,27.22
2022-08-07T09:39:52.752Z,25.32
2022-08-07T09:41:15.347Z,27.37
2022-08-07T09:43:18.085Z,25.38
2022-08-07T09:47:42.585Z,27.17
2022-08-07T09:47:52.194Z,27.24
2022-08-07T09:50:01.083Z,25.31
2022-08-07T09:52:10.066Z,25.24
2022-08-07T09:53:15.444Z,25.23
2022-08-07T09:55:16.968Z,27.31
2022-08-07T09:57:15.468Z,27.22
2022-08-07T09:59:15.394Z,26.21
2022-08-07T10:01:51.375Z,27.12
2022-08-07T10:04:04.825Z,27.21
2022-08-07T10:05:15.532Z,27.22
2022-08-07T10:07:24.331Z,27.25
2022-08-07T10:09:15.569Z,25.94
2022-08-07T10:11:59.885Z,25.41
2022-08-07T10:13:29.858Z,25.37
2022-08-07T10:15:18.629Z,27.30
2022-08-07T10:17:16.780Z,27.19
2022-08-07T10:19:15.320Z,25.37
2022-08-07T10:21:19.827Z,25.31
2022-08-07T10:23:16.999Z,25.23
2022-08-07T10:25:15.524Z,25.23
2022-08-07T10:27:15.562Z,25.26
2022-08-07T10:29:15.523Z,27.22
2022-08-07T10:31:15.389Z,27.24
2022-08-07T10:33:15.531Z,27.19
2022-08-07T10:35:20.280Z,25.28
2022-08-07T10:37:15.398Z,25.33
2022-08-07T10:39:15.516Z,25.34
2022-08-07T10:41:15.412Z,25.28
2022-08-07T10:43:15.412Z,25.33
2022-08-07T10:45:15.435Z,27.19
2022-08-07T10:47:15.510Z,27.22
2022-08-07T10:49:15.378Z,25.26
2022-08-07T10:51:16.901Z,25.29
2022-08-07T10:53:21.532Z,25.29
2022-08-07T10:55:26.643Z,27.23
2022-08-07T10:57:15.540Z,27.27
2022-08-07T10:59:15.825Z,27.16
2022-08-07T11:01:15.545Z,27.19
2022-08-07T11:03:15.639Z,27.14
2022-08-07T11:05:15.632Z,27.28
2022-08-07T11:07:24.817Z,25.39
2022-08-07T11:10:07.909Z,25.36
2022-08-07T11:11:20.117Z,25.29
2022-08-07T11:13:16.781Z,27.22
2022-08-07T11:15:17.631Z,25.23
2022-08-07T11:17:23.574Z,25.35
2022-08-07T11:19:21.589Z,25.33
2022-08-07T11:21:15.580Z,25.33
2022-08-07T11:23:20.813Z,25.32
2022-08-07T11:25:15.450Z,25.29
2022-08-07T11:27:15.591Z,27.34
2022-08-07T11:29:41.948Z,27.23
2022-08-07T11:31:15.431Z,27.36
2022-08-07T11:33:15.812Z,25.29
2022-08-07T11:35:16.553Z,25.41
2022-08-07T11:37:15.492Z,25.37
2022-08-07T11:39:19.408Z,25.34
2022-08-07T11:41:18.497Z,25.21
2022-08-07T11:43:15.763Z,27.24
2022-08-07T11:45:15.484Z,27.23
2022-08-07T11:47:15.609Z,25.40
2022-08-07T11:49:50.195Z,25.36
2022-08-07T11:51:41.993Z,27.30
2022-08-07T11:53:15.426Z,27.26
2022-08-07T11:56:08.724Z,27.22
2022-08-07T11:57:15.595Z,27.26
2022-08-07T11:59:22.169Z,27.21
2022-08-07T12:01:20.245Z,27.28
2022-08-07T12:03:44.541Z,27.31
2022-08-07T12:05:28.275Z,25.31
2022-08-07T12:07:20.245Z,25.37
2022-08-07T12:09:16.449Z,27.35
2022-08-07T12:11:20.402Z,27.22
2022-08-07T12:13:16.768Z,27.25
2022-08-07T12:15:35.496Z,26.20
2022-08-07T12:17:19.840Z,25.32
2022-08-07T12:19:21.331Z,25.38
2022-08-07T12:21:15.916Z,25.41
2022-08-07T12:23:15.453Z,25.49
2022-08-07T12:26:00.191Z,27.23
2022-08-07T12:27:15.980Z,27.28
2022-08-07T12:29:15.481Z,27.30
2022-08-07T12:31:17.197Z,27.34
2022-08-07T12:33:23.575Z,25.52
2022-08-07T12:35:15.619Z,25.61
2022-08-07T12:37:16.872Z,25.65
2022-08-07T12:39:42.332Z,25.54
2022-08-07T12:41:15.607Z,26.80
2022-08-07T12:44:03.118Z,27.38
2022-08-07T12:45:15.525Z,25.80
2022-08-07T12:47:21.502Z,27.38
2022-08-07T12:49:40.138Z,26.25
2022-08-07T12:51:17.688Z,27.36
2022-08-07T12:53:17.450Z,27.37
2022-08-07T12:55:17.577Z,27.38
2022-08-07T12:57:16.581Z,27.27
2022-08-07T12:59:20.294Z,27.45
2022-08-07T13:01:15.652Z,25.42
2022-08-07T13:03:27.490Z,25.75
2022-08-07T13:06:02.690Z,25.53
2022-08-07T13:07:17.911Z,25.64
2022-08-07T13:10:19.770Z,25.64
2022-08-07T13:11:16.260Z,25.52
2022-08-07T13:13:46.873Z,25.63
2022-08-07T13:15:15.634Z,25.84
2022-08-07T13:17:18.281Z,25.80
2022-08-07T13:19:21.960Z,25.61
2022-08-07T13:21:15.643Z,25.80
2022-08-07T13:24:02.901Z,25.75
2022-08-07T13:25:24.106Z,25.75
2022-08-07T13:27:15.539Z,25.71
2022-08-07T13:29:15.780Z,25.78
2022-08-07T13:31:15.666Z,25.56
2022-08-07T13:33:16.466Z,25.80
2022-08-07T13:35:15.942Z,25.78
2022-08-07T13:37:20.603Z,25.65
2022-08-07T13:39:28.216Z,25.65
2022-08-07T13:41:15.750Z,25.65
2022-08-07T13:43:16.146Z,26.60
2022-08-07T13:46:07.366Z,27.25
2022-08-07T13:47:25.151Z,25.80
2022-08-07T13:50:33.801Z,27.46
2022-08-07T13:51:28.295Z,26.96
2022-08-07T13:53:15.594Z,27.37
2022-08-07T13:55:19.508Z,27.37
2022-08-07T13:57:22.483Z,27.56
2022-08-07T13:59:15.768Z,25.84
2022-08-07T14:01:15.599Z,25.65
2022-08-07T14:03:15.726Z,25.65
2022-08-07T14:05:15.663Z,25.64
2022-08-07T14:07:15.769Z,25.83
2022-08-07T14:09:42.184Z,25.84
2022-08-07T14:11:17.508Z,25.75
2022-08-07T14:13:16.185Z,25.61
2022-08-07T14:15:15.636Z,25.90
2022-08-07T14:18:13.030Z,25.84
2022-08-07T14:19:17.733Z,25.74
2022-08-07T14:22:01.395Z,25.81
2022-08-07T14:23:18.061Z,25.83
2022-08-07T14:25:15.755Z,25.65
2022-08-07T14:27:16.082Z,25.83
2022-08-07T14:30:11.106Z,25.89
2022-08-07T14:31:15.793Z,25.77
2022-08-07T14:33:15.709Z,25.82
2022-08-07T14:35:15.654Z,25.80
2022-08-07T14:37:16.497Z,25.82
2022-08-07T14:40:17.598Z,27.31
2022-08-07T14:41:15.786Z,27.27
2022-08-07T14:43:59.383Z,27.31
2022-08-07T14:45:21.310Z,27.13
2022-08-07T14:47:16.538Z,27.22
2022-08-07T14:49:56.058Z,27.23
2022-08-07T14:51:17.208Z,27.19
2022-08-07T14:53:15.665Z,27.36
2022-08-07T14:55:17.549Z,27.36
2022-08-07T14:57:19.206Z,25.75
2022-08-07T15:00:03.611Z,25.75
2022-08-07T15:01:22.255Z,25.75
2022-08-07T15:03:18.821Z,25.80
2022-08-07T15:05:19.709Z,25.75
2022-08-07T15:07:17.612Z,25.72
2022-08-07T15:09:59.769Z,25.65
2022-08-07T15:11:16.445Z,25.62
2022-08-07T15:13:15.823Z,25.61
2022-08-07T15:15:17.339Z,25.78
2022-08-07T15:17:16.631Z,25.75
2022-08-07T15:19:16.805Z,25.79
2022-08-07T15:21:58.559Z,25.65
2022-08-07T15:23:20.642Z,25.74
2022-08-07T15:25:19.360Z,25.79
2022-08-07T15:27:15.755Z,25.75
2022-08-07T15:30:06.580Z,25.77
2022-08-07T15:35:16.743Z,25.60
2022-08-07T15:37:15.775Z,27.17
2022-08-07T15:39:15.725Z,26.37
2022-08-07T15:41:23.568Z,27.16
2022-08-07T15:45:19.320Z,27.20
2022-08-07T15:48:00.162Z,27.32
2022-08-07T15:49:15.875Z,27.37
2022-08-07T15:51:15.745Z,27.35
2022-08-07T15:53:15.819Z,25.52
2022-08-07T15:55:15.796Z,25.25
2022-08-07T15:57:28.322Z,25.38
2022-08-07T15:59:16.322Z,25.81
2022-08-07T16:01:20.368Z,25.41
2022-08-07T16:03:21.422Z,25.49
2022-08-07T16:05:15.936Z,25.52
2022-08-07T16:08:31.590Z,25.52
2022-08-07T16:09:22.610Z,25.47
2022-08-07T16:11:27.404Z,25.41
2022-08-07T16:13:18.102Z,25.39
2022-08-07T16:15:56.375Z,25.47
2022-08-07T16:17:16.298Z,25.52
2022-08-07T16:19:15.768Z,25.46
2022-08-07T16:22:02.049Z,25.49
2022-08-07T16:23:25.356Z,25.47
2022-08-07T16:25:23.011Z,25.52
2022-08-07T16:27:18.697Z,25.45
2022-08-07T16:30:08.755Z,25.49
2022-08-07T16:31:49.835Z,25.49
2022-08-07T16:34:02.895Z,25.36
2022-08-07T16:35:51.884Z,26.79
2022-08-07T16:38:04.730Z,26.39
2022-08-07T16:39:16.572Z,26.27
2022-08-07T16:41:15.999Z,26.07
2022-08-07T16:43:15.773Z,25.75
2022-08-07T16:46:21.312Z,25.06
2022-08-07T16:47:27.388Z,24.83
2022-08-07T16:50:20.185Z,25.65
2022-08-07T16:51:57.700Z,27.23
2022-08-07T16:53:55.453Z,25.18
2022-08-07T16:55:15.801Z,27.13
2022-08-07T16:57:15.955Z,25.12
2022-08-07T16:59:17.367Z,26.74
2022-08-07T17:01:16.175Z,25.21
2022-08-07T17:03:17.147Z,26.41
2022-08-07T17:06:19.160Z,25.17
2022-08-07T17:07:15.888Z,24.69
2022-08-07T17:10:06.913Z,24.52
2022-08-07T17:11:15.783Z,24.53
2022-08-07T17:13:15.750Z,24.51
2022-08-07T17:15:16.101Z,24.42
2022-08-07T17:17:15.784Z,24.34
2022-08-07T17:19:16.597Z,24.32
2022-08-07T17:21:18.414Z,24.23
2022-08-07T17:23:15.838Z,24.19
2022-08-07T17:25:15.897Z,24.12
2022-08-07T17:27:20.159Z,24.10
2022-08-07T17:30:12.411Z,24.12
2022-08-07T17:31:17.214Z,23.81
2022-08-07T17:34:08.546Z,23.81
2022-08-07T17:35:50.410Z,23.84
2022-08-07T17:38:06.528Z,23.84
2022-08-07T17:39:16.229Z,23.81
2022-08-07T17:42:02.295Z,23.82
2022-08-07T17:43:18.286Z,23.81
2022-08-07T17:45:15.862Z,23.77
2022-08-07T17:47:16.831Z,23.90
2022-08-07T17:49:23.167Z,23.95
2022-08-07T17:51:16.375Z,23.87
2022-08-07T17:53:57.103Z,23.90
2022-08-07T17:55:15.976Z,23.91
2022-08-07T17:57:18.684Z,23.91
2022-08-07T17:59:16.971Z,23.82
2022-08-07T18:01:20.708Z,23.84
2022-08-07T18:03:18.517Z,23.83
2022-08-07T18:05:21.345Z,23.86
2022-08-07T18:07:22.947Z,23.81
2022-08-07T18:09:16.229Z,23.81
2022-08-07T18:12:06.543Z,23.81
2022-08-07T18:13:15.929Z,23.81
2022-08-07T18:15:15.881Z,23.81
2022-08-07T18:17:16.023Z,23.84
2022-08-07T18:21:08.287Z,23.82
2022-08-07T18:21:42.091Z,23.74
2022-08-07T18:23:41.004Z,23.77
2022-08-07T18:25:24.106Z,23.68
2022-08-07T18:27:17.500Z,23.79
2022-08-07T18:30:05.423Z,23.53
2022-08-07T18:31:18.622Z,23.53
2022-08-07T18:33:16.028Z,23.50
2022-08-07T18:35:15.992Z,23.49
2022-08-07T18:38:56.624Z,23.49
2022-08-07T18:40:07.040Z,23.38
2022-08-07T18:41:17.187Z,23.37
2022-08-07T18:43:16.003Z,23.77
2022-08-07T18:45:43.006Z,23.71
2022-08-07T18:47:22.543Z,23.75
2022-08-07T18:50:30.966Z,23.76
2022-08-07T18:51:15.962Z,23.77
2022-08-07T18:53:16.457Z,23.80
2022-08-07T18:55:43.393Z,23.81
2022-08-07T18:57:29.640Z,23.80
2022-08-07T18:59:47.233Z,23.77
2022-08-07T19:02:19.350Z,23.81
2022-08-07T19:03:16.386Z,23.80
2022-08-07T19:05:17.697Z,23.90
2022-08-07T19:07:16.005Z,23.73
2022-08-07T19:09:57.729Z,23.77
2022-08-07T19:11:36.102Z,23.75
2022-08-07T19:13:21.742Z,23.75
2022-08-07T19:16:02.380Z,23.73
2022-08-07T19:18:07.147Z,23.73
2022-08-07T19:19:16.007Z,23.81
2022-08-07T19:21:47.443Z,23.81
2022-08-07T19:23:18.924Z,23.73
2022-08-07T19:26:22.810Z,23.50
2022-08-07T19:28:29.232Z,23.42
2022-08-07T19:31:06.376Z,23.39
2022-08-07T19:31:41.805Z,23.34
2022-08-07T19:33:16.156Z,23.39
2022-08-07T19:35:16.543Z,23.38
2022-08-07T19:37:17.282Z,23.39
2022-08-07T19:39:16.166Z,23.56
2022-08-07T19:41:16.125Z,23.61
2022-08-07T19:43:21.894Z,23.61
2022-08-07T19:46:05.942Z,23.58
2022-08-07T19:47:16.176Z,23.63
2022-08-07T19:49:15.995Z,23.63
2022-08-07T19:51:19.437Z,23.68
2022-08-07T19:54:31.101Z,23.66
2022-08-07T19:55:16.204Z,23.63
2022-08-07T19:58:01.572Z,23.57
2022-08-07T19:59:16.145Z,23.59
2022-08-07T20:01:16.054Z,23.57
2022-08-07T20:03:33.803Z,23.58
2022-08-07T20:05:16.056Z,23.56
2022-08-07T20:07:23.978Z,23.58
2022-08-07T20:10:33.713Z,23.54
2022-08-07T20:11:34.440Z,23.58
2022-08-07T20:13:23.917Z,23.57
2022-08-07T20:15:22.131Z,23.59
2022-08-07T20:17:16.031Z,23.55
2022-08-07T20:19:16.147Z,23.58
2022-08-07T20:21:21.813Z,23.30
2022-08-07T20:23:41.069Z,23.29
2022-08-07T20:25:19.947Z,23.26
2022-08-07T20:27:45.777Z,23.26
2022-08-07T20:29:46.635Z,23.26
2022-08-07T20:31:21.452Z,23.22
2022-08-07T20:33:24.520Z,23.24
2022-08-07T20:35:18.555Z,23.23
2022-08-07T20:37:16.065Z,23.40
2022-08-07T20:39:31.004Z,23.44
2022-08-07T20:41:16.564Z,23.42
2022-08-07T20:43:19.839Z,23.45
2022-08-07T20:45:33.356Z,23.47
2022-08-07T20:47:16.159Z,23.50
2022-08-07T20:49:58.949Z,23.49
2022-08-07T20:51:16.456Z,23.44
2022-08-07T20:53:16.075Z,23.44
2022-08-07T20:55:16.113Z,23.51
2022-08-07T20:57:16.051Z,23.51
2022-08-07T20:59:27.144Z,23.44
2022-08-07T21:01:19.772Z,23.40
2022-08-07T21:03:16.299Z,23.43
2022-08-07T21:05:16.828Z,23.40
2022-08-07T21:07:19.319Z,23.42
2022-08-07T21:09:16.137Z,23.44
2022-08-07T21:11:16.247Z,23.42
2022-08-07T21:13:16.714Z,23.39
2022-08-07T21:15:18.664Z,23.39
2022-08-07T21:18:02.748Z,23.40
2022-08-07T21:19:16.255Z,23.16
2022-08-07T21:21:16.234Z,23.22
2022-08-07T21:23:16.196Z,23.13
2022-08-07T21:25:16.112Z,23.03
2022-08-07T21:27:16.391Z,23.06
2022-08-07T21:29:16.241Z,23.10
2022-08-07T21:31:16.192Z,23.11
2022-08-07T21:33:16.211Z,23.28
2022-08-07T21:35:16.236Z,23.38
2022-08-07T21:37:16.281Z,23.31
2022-08-07T21:39:47.529Z,23.31
2022-08-07T21:41:16.386Z,23.28
2022-08-07T21:43:16.126Z,23.29
2022-08-07T21:46:05.264Z,23.27
2022-08-07T21:47:16.307Z,23.29
2022-08-07T21:49:16.874Z,23.30
2022-08-07T21:51:19.738Z,23.38
2022-08-07T21:53:16.277Z,23.27
2022-08-07T21:55:19.427Z,23.27
2022-08-07T21:57:40.049Z,23.34
2022-08-07T21:59:16.182Z,23.25
2022-08-07T22:01:16.324Z,23.26
2022-08-07T22:03:17.101Z,23.26
2022-08-07T22:05:44.028Z,23.15
2022-08-07T22:07:16.306Z,23.27
2022-08-07T22:09:16.190Z,23.26
2022-08-07T22:11:16.309Z,23.27
2022-08-07T22:13:16.184Z,23.25
2022-08-07T22:16:43.305Z,23.04
2022-08-07T22:17:16.202Z,22.97
2022-08-07T22:19:16.322Z,22.96
2022-08-07T22:21:16.337Z,22.96
2022-08-07T22:23:16.398Z,22.95
2022-08-07T22:25:17.140Z,22.96
2022-08-07T22:27:16.318Z,22.96
2022-08-07T22:29:16.354Z,22.96
2022-08-07T22:31:45.503Z,23.13
2022-08-07T22:33:16.305Z,23.16
2022-08-07T22:35:16.392Z,23.19
2022-08-07T22:37:16.227Z,23.19
2022-08-07T22:39:16.406Z,23.19
2022-08-07T22:41:16.363Z,23.16
2022-08-07T22:43:16.344Z,23.19
2022-08-07T22:46:04.441Z,23.17
2022-08-07T22:47:16.966Z,23.20
2022-08-07T22:49:16.489Z,23.15
2022-08-07T22:51:16.187Z,23.16
2022-08-07T22:53:16.368Z,23.17
2022-08-07T22:55:22.435Z,23.20
2022-08-07T22:57:16.880Z,23.14
2022-08-07T22:59:16.331Z,23.13
2022-08-07T23:01:16.336Z,23.12
2022-08-07T23:03:16.461Z,23.19
2022-08-07T23:06:14.955Z,23.18
2022-08-07T23:07:33.600Z,23.16
2022-08-07T23:10:06.338Z,23.23
2022-08-07T23:11:16.403Z,22.90
2022-08-07T23:13:16.307Z,22.85
2022-08-07T23:16:04.355Z,22.84
2022-08-07T23:17:19.919Z,22.83
2022-08-07T23:19:16.198Z,22.81
2022-08-07T23:21:16.567Z,22.87
2022-08-07T23:24:04.189Z,22.91
2022-08-07T23:25:16.347Z,22.87
2022-08-07T23:27:16.320Z,23.04
2022-08-07T23:29:17.065Z,23.13
2022-08-07T23:31:43.023Z,23.08
2022-08-07T23:34:34.865Z,23.11
2022-08-07T23:35:16.735Z,23.10
2022-08-07T23:37:19.429Z,23.08
2022-08-07T23:39:16.497Z,23.08
2022-08-07T23:41:16.299Z,23.07
2022-08-07T23:43:16.946Z,23.05
2022-08-07T23:45:33.535Z,23.04
2022-08-07T23:47:16.662Z,23.08
2022-08-07T23:49:16.234Z,23.06
2022-08-07T23:53:05.643Z,23.04
2022-08-07T23:53:17.271Z,23.02
2022-08-07T23:55:53.725Z,23.02
2022-08-07T23:57:18.664Z,23.01
